createdAt,value
2022-12-08T00:00:52.452Z,5.80
2022-12-08T00:03:19.703Z,6.00
2022-12-08T00:06:07.177Z,6.50
2022-12-08T00:08:53.103Z,6.50
2022-12-08T00:11:20.019Z,5.70
2022-12-08T00:13:46.826Z,6.40
2022-12-08T00:16:14.156Z,4.20
2022-12-08T00:18:41.074Z,6.30
2022-12-08T00:21:09.606Z,7.00
2022-12-08T00:23:36.620Z,5.10
2022-12-08T00:26:04.314Z,5.30
2022-12-08T00:28:32.416Z,6.60
2022-12-08T00:30:59.563Z,6.50
2022-12-08T00:33:27.975Z,6.70
2022-12-08T00:35:55.014Z,5.00
2022-12-08T00:38:21.855Z,6.20
2022-12-08T00:40:48.780Z,3.90
2022-12-08T00:43:15.822Z,6.00
2022-12-08T00:45:42.737Z,4.70
2022-12-08T00:48:09.814Z,6.70
2022-12-08T00:50:36.622Z,5.00
2022-12-08T00:53:03.551Z,6.80
2022-12-08T00:55:30.699Z,3.80
2022-12-08T00:57:57.718Z,8.00
2022-12-08T01:00:25.049Z,5.30
2022-12-08T01:02:52.142Z,7.90
2022-12-08T01:05:19.262Z,6.00
2022-12-08T01:07:48.587Z,6.10
2022-12-08T01:10:16.024Z,5.80
2022-12-08T01:12:44.377Z,6.70
2022-12-08T01:15:11.572Z,5.40
2022-12-08T01:17:38.725Z,7.40
2022-12-08T01:20:06.769Z,7.00
2022-12-08T01:22:35.467Z,6.30
2022-12-08T01:25:02.739Z,5.80
2022-12-08T01:27:29.991Z,3.10
2022-12-08T01:29:56.910Z,5.60
2022-12-08T01:32:24.133Z,7.60
2022-12-08T01:34:51.120Z,8.00
2022-12-08T01:37:18.334Z,7.00
2022-12-08T01:39:45.792Z,7.70
2022-12-08T01:42:22.745Z,4.70
2022-12-08T01:44:53.746Z,6.60
2022-12-08T01:47:21.879Z,6.30
2022-12-08T01:49:48.730Z,6.50
2022-12-08T01:52:25.506Z,5.20
2022-12-08T01:54:58.115Z,6.10
2022-12-08T01:57:34.343Z,6.60
2022-12-08T02:00:08.699Z,6.90
2022-12-08T02:03:00.495Z,5.80
2022-12-08T02:05:32.751Z,7.20
2022-12-08T02:08:01.267Z,6.90
2022-12-08T02:10:30.436Z,7.70
2022-12-08T02:12:57.526Z,8.10
2022-12-08T02:15:32.728Z,5.00
2022-12-08T02:18:02.630Z,6.40
2022-12-08T02:20:42.300Z,5.10
2022-12-08T02:23:22.631Z,7.40
2022-12-08T02:25:59.307Z,6.50
2022-12-08T02:28:39.770Z,8.20
2022-12-08T02:31:16.009Z,6.50
2022-12-08T02:34:07.084Z,5.40
2022-12-08T02:36:48.507Z,7.40
2022-12-08T02:39:45.687Z,5.70
2022-12-08T02:42:22.425Z,7.70
2022-12-08T02:45:01.793Z,4.80
2022-12-08T02:47:28.761Z,5.80
2022-12-08T02:49:56.801Z,7.60
2022-12-08T02:52:23.579Z,7.50
2022-12-08T02:55:32.881Z,4.90
2022-12-08T02:58:12.332Z,6.10
2022-12-08T03:01:21.246Z,4.30
2022-12-08T03:04:14.714Z,5.70
2022-12-08T03:06:54.973Z,6.20
2022-12-08T03:09:28.264Z,4.50
2022-12-08T03:12:00.024Z,4.60
2022-12-08T03:14:26.965Z,6.60
2022-12-08T03:16:55.260Z,6.80
2022-12-08T03:19:27.130Z,5.70
2022-12-08T03:22:05.108Z,7.10
2022-12-08T03:24:40.225Z,6.10
2022-12-08T03:27:09.325Z,6.10
2022-12-08T03:29:36.280Z,5.60
2022-12-08T03:32:28.865Z,6.50
2022-12-08T03:34:56.693Z,6.10
2022-12-08T03:37:23.995Z,6.10
2022-12-08T03:39:50.847Z,5.80
2022-12-08T03:42:17.937Z,6.60
2022-12-08T03:44:45.377Z,5.10
2022-12-08T03:47:12.277Z,7.50
2022-12-08T03:49:40.336Z,6.70
2022-12-08T03:52:08.633Z,7.30
2022-12-08T03:54:35.730Z,5.60
2022-12-08T03:57:02.827Z,5.80
2022-12-08T03:59:30.242Z,4.50
2022-12-08T04:01:57.111Z,4.70
2022-12-08T04:04:24.075Z,7.10
2022-12-08T04:06:51.271Z,5.10
2022-12-08T04:09:18.240Z,6.10
2022-12-08T04:11:45.572Z,5.70
2022-12-08T04:14:12.704Z,5.40
2022-12-08T04:16:39.786Z,6.20
2022-12-08T04:19:06.815Z,7.50
2022-12-08T04:21:33.832Z,6.00
2022-12-08T04:24:01.484Z,4.50
2022-12-08T04:26:28.858Z,8.70
2022-12-08T04:28:58.076Z,4.80
2022-12-08T04:31:25.733Z,4.70
2022-12-08T04:33:52.728Z,5.50
2022-12-08T04:36:21.458Z,5.00
2022-12-08T04:38:49.091Z,6.30
2022-12-08T04:41:16.309Z,5.90
2022-12-08T04:43:43.923Z,2.90
2022-12-08T04:46:11.037Z,6.60
2022-12-08T04:48:38.651Z,5.90
2022-12-08T04:51:05.658Z,6.60
2022-12-08T04:53:33.560Z,4.60
2022-12-08T04:56:00.367Z,3.80
2022-12-08T04:58:27.467Z,4.20
2022-12-08T05:00:54.696Z,5.50
2022-12-08T05:03:28.285Z,4.40
2022-12-08T05:05:55.895Z,3.70
2022-12-08T05:08:22.876Z,5.10
2022-12-08T05:10:49.887Z,3.90
2022-12-08T05:13:17.689Z,3.40
2022-12-08T05:15:44.564Z,4.50
2022-12-08T05:18:11.435Z,4.40
2022-12-08T05:20:38.452Z,5.30
2022-12-08T05:23:05.336Z,3.40
2022-12-08T05:25:32.439Z,4.50
2022-12-08T05:28:32.360Z,3.50
2022-12-08T05:30:47.229Z,3.40
2022-12-08T05:33:14.857Z,2.90
2022-12-08T05:35:42.552Z,6.00
2022-12-08T05:38:10.315Z,4.00
2022-12-08T05:40:41.272Z,4.20
2022-12-08T05:43:09.450Z,3.50
2022-12-08T05:45:37.028Z,4.30
2022-12-08T05:48:04.951Z,4.60
2022-12-08T05:50:31.993Z,3.80
2022-12-08T05:52:58.940Z,2.90
2022-12-08T05:55:26.202Z,3.60
2022-12-08T05:57:53.197Z,3.50
2022-12-08T06:00:21.622Z,4.20
2022-12-08T06:02:48.740Z,5.00
2022-12-08T06:05:15.813Z,2.50
2022-12-08T06:07:42.795Z,4.80
2022-12-08T06:10:11.016Z,3.60
2022-12-08T06:12:38.086Z,5.20
2022-12-08T06:15:05.947Z,5.20
2022-12-08T06:17:32.809Z,4.10
2022-12-08T06:19:59.938Z,4.60
2022-12-08T06:22:27.767Z,2.90
2022-12-08T06:24:54.854Z,2.40
2022-12-08T06:27:21.780Z,2.40
2022-12-08T06:29:48.866Z,4.30
2022-12-08T06:32:16.029Z,3.10
2022-12-08T06:34:46.099Z,4.20
2022-12-08T06:37:13.062Z,2.50
2022-12-08T06:39:39.953Z,3.40
2022-12-08T06:42:25.639Z,4.50
2022-12-08T06:44:52.602Z,2.60
2022-12-08T06:47:26.171Z,3.60
2022-12-08T06:49:53.595Z,3.80
2022-12-08T06:52:20.477Z,4.10
2022-12-08T06:54:47.474Z,2.40
2022-12-08T06:57:14.488Z,4.30
2022-12-08T06:59:41.390Z,4.20
2022-12-08T07:02:09.195Z,3.80
2022-12-08T07:04:36.299Z,3.30
2022-12-08T07:07:03.634Z,5.60
2022-12-08T07:09:30.854Z,3.10
2022-12-08T07:11:58.442Z,2.50
2022-12-08T07:14:25.487Z,4.20
2022-12-08T07:16:52.520Z,3.00
2022-12-08T07:19:19.481Z,5.40
2022-12-08T07:21:46.357Z,5.90
2022-12-08T07:24:13.324Z,3.50
2022-12-08T07:26:40.831Z,6.20
2022-12-08T07:29:09.615Z,3.80
2022-12-08T07:31:36.439Z,3.80
2022-12-08T07:34:04.014Z,5.60
2022-12-08T07:36:32.292Z,4.90
2022-12-08T07:38:59.218Z,3.60
2022-12-08T07:41:26.733Z,4.90
2022-12-08T07:43:54.868Z,4.70
2022-12-08T07:46:23.419Z,3.40
2022-12-08T07:48:52.025Z,3.90
2022-12-08T07:51:19.196Z,4.10
2022-12-08T07:53:53.210Z,4.40
2022-12-08T07:56:22.633Z,4.90
2022-12-08T07:58:50.050Z,5.20
2022-12-08T08:01:30.208Z,4.20
2022-12-08T08:04:00.939Z,3.70
2022-12-08T08:06:27.981Z,4.00
2022-12-08T08:08:55.031Z,3.80
2022-12-08T08:11:22.195Z,4.10
2022-12-08T08:13:50.460Z,5.20
2022-12-08T08:16:17.937Z,3.70
2022-12-08T08:18:47.853Z,6.00
2022-12-08T08:21:44.917Z,5.70
2022-12-08T08:24:01.602Z,2.80
2022-12-08T08:26:29.001Z,3.40
2022-12-08T08:28:56.252Z,4.40
2022-12-08T08:31:26.367Z,4.20
2022-12-08T08:33:53.661Z,4.60
2022-12-08T08:36:21.734Z,5.00
2022-12-08T08:38:49.174Z,3.50
2022-12-08T08:41:16.275Z,3.40
2022-12-08T08:43:43.175Z,2.20
2022-12-08T08:46:10.428Z,3.70
2022-12-08T08:48:37.790Z,3.80
2022-12-08T08:51:12.391Z,4.70
2022-12-08T08:53:39.460Z,3.70
2022-12-08T08:56:14.621Z,5.50
2022-12-08T08:58:41.958Z,4.80
2022-12-08T09:01:09.335Z,3.90
2022-12-08T09:03:36.309Z,4.00
2022-12-08T09:06:03.611Z,4.70
2022-12-08T09:08:31.165Z,4.60
2022-12-08T09:11:00.157Z,4.40
2022-12-08T09:13:27.818Z,5.50
2022-12-08T09:15:54.910Z,5.10
2022-12-08T09:18:21.880Z,4.40
2022-12-08T09:20:48.855Z,4.90
2022-12-08T09:23:16.004Z,3.30
2022-12-08T09:25:46.537Z,3.60
2022-12-08T09:28:15.633Z,4.80
2022-12-08T09:30:43.210Z,4.60
2022-12-08T09:33:10.172Z,5.50
2022-12-08T09:35:37.299Z,4.30
2022-12-08T09:38:04.135Z,5.10
2022-12-08T09:40:32.919Z,4.90
2022-12-08T09:43:23.030Z,5.40
2022-12-08T09:45:51.275Z,4.80
2022-12-08T09:48:19.654Z,3.40
2022-12-08T09:50:53.114Z,3.20
2022-12-08T09:53:42.095Z,3.70
2022-12-08T09:56:16.988Z,4.50
2022-12-08T09:58:54.901Z,3.70
2022-12-08T10:01:23.892Z,4.20
2022-12-08T10:03:50.886Z,4.80
2022-12-08T10:07:02.169Z,4.20
2022-12-08T10:09:39.552Z,4.30
2022-12-08T10:12:25.240Z,3.90
2022-12-08T10:15:13.188Z,3.40
2022-12-08T10:17:50.668Z,3.30
2022-12-08T10:20:20.355Z,3.70
2022-12-08T10:22:50.500Z,3.80
2022-12-08T10:25:18.880Z,3.90
2022-12-08T10:27:47.606Z,4.20
2022-12-08T10:30:16.694Z,3.70
2022-12-08T10:32:44.769Z,4.10
2022-12-08T10:36:18.773Z,4.70
2022-12-08T10:38:45.695Z,2.70
2022-12-08T10:41:14.273Z,3.00
2022-12-08T10:43:52.607Z,3.40
2022-12-08T10:46:20.305Z,3.80
2022-12-08T10:49:10.580Z,4.30
2022-12-08T10:51:37.421Z,4.90
2022-12-08T10:54:06.374Z,4.40
2022-12-08T10:56:33.364Z,2.40
2022-12-08T10:59:21.743Z,5.20
2022-12-08T11:01:49.874Z,3.40
2022-12-08T11:04:36.748Z,2.90
2022-12-08T11:07:06.869Z,4.00
2022-12-08T11:09:40.685Z,4.20
2022-12-08T11:12:10.033Z,4.40
2022-12-08T11:14:47.214Z,3.40
2022-12-08T11:17:23.479Z,3.30
2022-12-08T11:19:59.685Z,3.20
2022-12-08T11:22:31.339Z,3.90
2022-12-08T11:25:07.603Z,3.30
2022-12-08T11:27:36.804Z,4.20
2022-12-08T11:30:14.545Z,2.40
2022-12-08T11:32:44.751Z,2.90
2022-12-08T11:35:21.602Z,4.00
2022-12-08T11:37:48.499Z,4.20
2022-12-08T11:40:40.879Z,5.40
2022-12-08T11:43:29.228Z,3.50
2022-12-08T11:46:26.616Z,5.30
2022-12-08T11:49:05.632Z,5.40
2022-12-08T11:51:58.165Z,4.80
2022-12-08T11:54:36.816Z,3.90
2022-12-08T11:57:06.041Z,3.90
2022-12-08T11:59:47.316Z,3.40
2022-12-08T12:02:20.155Z,4.50
2022-12-08T12:05:03.326Z,3.70
2022-12-08T12:08:01.510Z,3.30
2022-12-08T12:10:45.213Z,6.10
2022-12-08T12:13:35.032Z,4.00
2022-12-08T12:16:39.976Z,4.40
2022-12-08T12:19:12.550Z,5.80
2022-12-08T12:21:42.165Z,5.40
2022-12-08T12:24:11.326Z,5.30
2022-12-08T12:26:39.551Z,5.00
2022-12-08T12:29:19.828Z,3.40
2022-12-08T12:32:06.941Z,4.70
2022-12-08T12:34:55.685Z,4.80
2022-12-08T12:37:32.640Z,5.50
2022-12-08T12:40:00.933Z,7.30
2022-12-08T12:42:52.897Z,5.50
2022-12-08T12:45:22.729Z,5.80
2022-12-08T12:47:56.390Z,4.60
2022-12-08T12:50:33.733Z,5.10
2022-12-08T12:53:09.162Z,5.50
2022-12-08T12:55:45.594Z,6.60
2022-12-08T12:58:21.844Z,6.40
2022-12-08T13:00:49.100Z,6.40
2022-12-08T13:03:16.960Z,5.90
2022-12-08T13:05:51.825Z,4.50
2022-12-08T13:08:23.374Z,4.60
2022-12-08T13:11:00.846Z,4.00
2022-12-08T13:13:27.786Z,5.10
2022-12-08T13:16:15.369Z,4.60
2022-12-08T13:18:47.891Z,4.80
2022-12-08T13:21:22.262Z,7.40
2022-12-08T13:23:50.068Z,7.10
2022-12-08T13:26:17.117Z,6.70
2022-12-08T13:28:59.509Z,3.40
2022-12-08T13:31:48.266Z,4.30
2022-12-08T13:34:30.072Z,4.10
2022-12-08T13:37:09.595Z,4.00
2022-12-08T13:39:39.580Z,4.80
2022-12-08T13:42:06.571Z,5.50
2022-12-08T13:45:22.333Z,5.30
2022-12-08T13:54:45.418Z,5.20
2022-12-08T13:59:19.702Z,4.50
2022-12-08T14:01:49.965Z,5.30
2022-12-08T14:04:42.504Z,4.70
2022-12-08T14:07:06.219Z,5.50
2022-12-08T14:09:35.058Z,4.10
2022-12-08T14:12:05.446Z,3.90
2022-12-08T14:15:01.389Z,4.30
2022-12-08T14:17:22.060Z,5.90
2022-12-08T14:19:56.646Z,5.00
2022-12-08T14:22:23.982Z,5.40
2022-12-08T14:24:53.041Z,4.90
2022-12-08T14:27:24.908Z,6.20
2022-12-08T14:30:28.866Z,7.90
2022-12-08T14:32:57.031Z,5.20
2022-12-08T14:35:31.089Z,4.00
2022-12-08T14:38:02.587Z,6.60
2022-12-08T14:40:36.565Z,6.10
2022-12-08T14:43:06.580Z,7.40
2022-12-08T14:45:54.648Z,6.50
2022-12-08T14:48:28.129Z,7.30
2022-12-08T14:53:38.001Z,5.30
2022-12-08T14:56:21.912Z,4.10
2022-12-08T14:59:06.085Z,6.30
2022-12-08T15:01:33.117Z,6.30
2022-12-08T15:04:08.842Z,5.50
2022-12-08T15:06:35.904Z,7.10
2022-12-08T15:09:18.331Z,6.50
2022-12-08T15:11:45.255Z,4.30
2022-12-08T15:14:42.515Z,6.60
2022-12-08T15:17:31.426Z,5.40
2022-12-08T15:19:59.348Z,3.10
2022-12-08T15:22:26.990Z,5.00
2022-12-08T15:24:54.081Z,5.60
2022-12-08T15:27:21.802Z,5.30
2022-12-08T15:29:48.821Z,6.00
2022-12-08T15:32:18.021Z,5.00
2022-12-08T15:34:44.874Z,6.00
2022-12-08T15:37:26.421Z,7.30
2022-12-08T15:39:53.372Z,7.50
2022-12-08T15:42:20.281Z,9.80
2022-12-08T15:44:47.267Z,12.50
2022-12-08T15:47:24.110Z,11.40
2022-12-08T15:49:52.653Z,7.30
2022-12-08T15:52:22.470Z,4.20
2022-12-08T15:54:49.546Z,6.10
2022-12-08T15:58:04.499Z,5.20
2022-12-08T16:00:51.188Z,7.70
2022-12-08T16:09:17.495Z,5.20
2022-12-08T16:12:08.766Z,7.10
2022-12-08T16:17:23.815Z,6.60
2022-12-08T16:19:50.828Z,7.80
2022-12-08T16:25:18.243Z,6.00
2022-12-08T16:28:17.209Z,6.50
2022-12-08T16:30:33.289Z,5.90
2022-12-08T16:33:00.205Z,5.40
2022-12-08T16:35:27.081Z,4.70
2022-12-08T16:37:53.916Z,6.40
2022-12-08T16:40:21.192Z,7.40
2022-12-08T16:42:50.275Z,7.20
2022-12-08T16:45:26.116Z,8.20
2022-12-08T16:48:00.339Z,7.70
2022-12-08T16:50:29.220Z,6.50
2022-12-08T16:52:58.216Z,8.00
2022-12-08T16:55:25.570Z,5.40
2022-12-08T16:57:52.472Z,6.50
2022-12-08T17:00:21.389Z,5.50
2022-12-08T17:02:48.400Z,7.00
2022-12-08T17:05:17.113Z,6.30
2022-12-08T17:07:46.017Z,9.10
2022-12-08T17:10:15.801Z,10.20
2022-12-08T17:12:42.785Z,9.30
2022-12-08T17:15:12.094Z,8.40
2022-12-08T17:17:39.748Z,6.50
2022-12-08T17:20:36.364Z,7.00
2022-12-08T17:23:03.341Z,8.50
2022-12-08T17:25:30.277Z,10.90
2022-12-08T17:27:57.168Z,8.80
2022-12-08T17:30:24.385Z,9.60
2022-12-08T17:32:52.951Z,10.50
2022-12-08T17:35:19.858Z,10.40
2022-12-08T17:37:46.841Z,7.70
2022-12-08T17:40:13.730Z,8.40
2022-12-08T17:42:40.957Z,9.40
2022-12-08T17:45:09.026Z,10.90
2022-12-08T17:47:36.989Z,10.50
2022-12-08T17:50:05.376Z,9.80
2022-12-08T17:52:32.719Z,10.20
2022-12-08T17:54:59.895Z,10.30
2022-12-08T17:57:26.901Z,6.90
2022-12-08T17:59:53.873Z,7.80
2022-12-08T18:02:20.861Z,9.70
2022-12-08T18:04:47.885Z,11.20
2022-12-08T18:07:14.892Z,9.20
2022-12-08T18:09:42.282Z,8.50
2022-12-08T18:12:09.187Z,7.30
2022-12-08T18:14:36.450Z,8.60
2022-12-08T18:17:03.575Z,9.50
2022-12-08T18:19:31.040Z,6.30
2022-12-08T18:21:57.936Z,8.70
2022-12-08T18:24:24.843Z,9.40
2022-12-08T18:26:52.849Z,8.40
2022-12-08T18:29:20.886Z,8.90
2022-12-08T18:31:47.918Z,9.80
2022-12-08T18:34:14.890Z,9.30
2022-12-08T18:36:41.815Z,10.00
2022-12-08T18:39:19.814Z,8.10
2022-12-08T18:41:46.760Z,9.20
2022-12-08T18:44:13.928Z,9.80
2022-12-08T18:46:40.907Z,7.50
2022-12-08T18:49:12.960Z,7.40
2022-12-08T18:51:39.870Z,9.60
2022-12-08T18:54:06.857Z,9.90
2022-12-08T18:56:34.980Z,7.80
2022-12-08T18:59:07.149Z,6.40
2022-12-08T19:01:35.714Z,11.70
2022-12-08T19:06:52.455Z,8.70
2022-12-08T19:09:19.717Z,9.30
2022-12-08T19:11:46.856Z,8.30
2022-12-08T19:14:14.759Z,10.10
2022-12-08T19:16:41.769Z,10.60
2022-12-08T19:19:08.661Z,10.30
2022-12-08T19:21:36.891Z,12.60
2022-12-08T19:24:07.102Z,11.80
2022-12-08T19:26:34.181Z,13.80
2022-12-08T19:29:01.299Z,8.30
2022-12-08T19:31:28.414Z,11.30
2022-12-08T19:33:55.394Z,11.00
2022-12-08T19:36:22.627Z,10.30
2022-12-08T19:39:08.978Z,10.80
2022-12-08T19:42:15.077Z,10.60
2022-12-08T19:44:54.545Z,11.50
2022-12-08T19:47:26.411Z,9.60
2022-12-08T19:49:55.174Z,11.60
2022-12-08T19:52:22.527Z,10.20
2022-12-08T19:54:49.600Z,11.00
2022-12-08T19:57:16.484Z,10.70
2022-12-08T19:59:43.438Z,9.90
2022-12-08T20:02:11.065Z,12.00
2022-12-08T20:04:38.142Z,9.80
2022-12-08T20:07:05.144Z,11.60
2022-12-08T20:09:32.330Z,8.80
2022-12-08T20:11:59.357Z,9.50
2022-12-08T20:14:26.477Z,11.20
2022-12-08T20:16:56.233Z,8.90
2022-12-08T20:19:23.686Z,9.20
2022-12-08T20:21:50.595Z,7.30
2022-12-08T20:24:17.556Z,10.30
2022-12-08T20:26:44.584Z,8.20
2022-12-08T20:29:12.339Z,7.40
2022-12-08T20:31:39.341Z,10.50
2022-12-08T20:34:06.427Z,11.20
2022-12-08T20:36:33.326Z,9.70
2022-12-08T20:39:00.120Z,9.90
2022-12-08T20:41:27.200Z,8.60
2022-12-08T20:43:54.346Z,8.80
2022-12-08T20:46:21.560Z,7.50
2022-12-08T20:48:48.782Z,7.80
2022-12-08T20:51:17.457Z,9.00
2022-12-08T20:53:44.459Z,10.70
2022-12-08T20:56:16.346Z,8.70
2022-12-08T20:58:43.492Z,10.80
2022-12-08T21:01:15.089Z,8.80
2022-12-08T21:03:42.908Z,10.80
2022-12-08T21:06:10.241Z,7.50
2022-12-08T21:08:37.645Z,10.50
2022-12-08T21:11:05.073Z,11.00
2022-12-08T21:13:32.339Z,10.10
2022-12-08T21:15:59.477Z,7.80
2022-12-08T21:18:26.665Z,10.50
2022-12-08T21:21:00.577Z,11.40
2022-12-08T21:23:27.818Z,10.30
2022-12-08T21:25:54.978Z,10.20
2022-12-08T21:28:22.154Z,9.70
2022-12-08T21:30:49.117Z,9.90
2022-12-08T21:33:16.119Z,8.70
2022-12-08T21:35:43.756Z,11.50
2022-12-08T21:38:10.855Z,9.90
2022-12-08T21:40:38.030Z,11.60
2022-12-08T21:43:05.135Z,10.60
2022-12-08T21:45:33.913Z,9.60
2022-12-08T21:48:05.714Z,8.80
2022-12-08T21:50:37.715Z,8.90
2022-12-08T21:53:04.921Z,7.40
2022-12-08T21:55:31.979Z,8.20
2022-12-08T21:58:01.099Z,9.40
2022-12-08T22:00:28.244Z,8.20
2022-12-08T22:02:55.888Z,6.40
2022-12-08T22:05:23.088Z,7.80
2022-12-08T22:07:50.413Z,7.50
2022-12-08T22:10:17.786Z,8.80
2022-12-08T22:12:45.009Z,9.50
2022-12-08T22:15:12.400Z,7.30
2022-12-08T22:17:40.683Z,8.90
2022-12-08T22:20:10.415Z,6.70
2022-12-08T22:22:37.725Z,9.40
2022-12-08T22:25:05.998Z,10.90
2022-12-08T22:27:33.824Z,10.10
2022-12-08T22:30:00.886Z,11.40
2022-12-08T22:32:28.270Z,9.10
2022-12-08T22:34:55.759Z,6.50
2022-12-08T22:37:22.842Z,5.70
2022-12-08T22:39:50.140Z,7.50
2022-12-08T22:42:17.264Z,8.90
2022-12-08T22:44:44.184Z,8.10
2022-12-08T22:47:11.571Z,8.10
2022-12-08T22:49:38.723Z,6.10
2022-12-08T22:52:05.933Z,9.20
2022-12-08T22:54:33.413Z,10.90
2022-12-08T22:57:00.528Z,10.80
2022-12-08T22:59:29.255Z,13.60
2022-12-08T23:01:56.448Z,8.60
2022-12-08T23:04:23.536Z,7.20
2022-12-08T23:06:50.727Z,5.80
2022-12-08T23:09:18.016Z,5.30
2022-12-08T23:11:45.074Z,9.80
2022-12-08T23:14:12.049Z,4.70
2022-12-08T23:16:39.045Z,8.60
2022-12-08T23:19:06.018Z,5.60
2022-12-08T23:21:33.156Z,5.60
2022-12-08T23:24:01.464Z,6.20
2022-12-08T23:26:29.781Z,6.30
2022-12-08T23:28:56.868Z,6.80
2022-12-08T23:31:24.249Z,6.70
2022-12-08T23:33:51.573Z,6.40
2022-12-08T23:36:18.907Z,5.80
2022-12-08T23:38:45.992Z,5.00
2022-12-08T23:41:14.295Z,7.40
2022-12-08T23:43:45.596Z,8.40
2022-12-08T23:46:13.175Z,4.90
2022-12-08T23:48:40.159Z,7.50
2022-12-08T23:51:07.287Z,6.10
2022-12-08T23:53:34.490Z,6.90
2022-12-08T23:56:06.507Z,7.60
2022-12-08T23:58:33.440Z,5.30
